Justin Paul Eckstein — WDH6444 — position and weather

sailwx.info

Track history (hours):
 
Tides and Currents Weather Stations Pressure Air Temp Water Temp Dewpoint Dewpoint Depression Visibility Wind Speed Wind Dir Waves Ship Positions

Justin Paul Eckstein

Owner: Marquette Transportation Co. LLC, Paducah, KY. More information available from US FCC via Universal Licensing System and Coast Guard Vessel Documentation Center.

Last reported at 2017-Dec-13 01:43 UTC. Time now 2017-Dec-15 08:17 UTC.
Position N 31°57' W 091°11'.

Length 61 m; draft 3.2 m.

Type: Tow > 200 m length. MMSI: 367608030.

Date/timePositionNaut miles runAvg speedWind from/ knotsBaromVisibWave heightAir tempDewpointWater temp
2017-Dec-13 01:43N 31°57' W 091°11'5 8.0
2017-Dec-13 01:03N 31°60' W 091°06'0 8.6
2017-Dec-13 01:00N 31°60' W 091°05'5 8.3
2017-Dec-13 00:25N 32°05' W 091°04'3 8.2
2017-Dec-13 00:00N 32°07' W 091°07'2 3.6
2017-Dec-12 23:30N 32°08' W 091°05'4 7.3
2017-Dec-12 23:00N 32°08' W 091°00'5 9.1
2017-Dec-12 22:30N 32°13' W 090°59'4 8.8
2017-Dec-12 22:00N 32°17' W 090°57'4 8.2
2017-Dec-12 21:30N 32°20' W 090°54'2 3.6
2017-Dec-12 21:00N 32°21' W 090°56'3 6.6
2017-Dec-12 20:30N 32°21' W 090°60'4 7.9
2017-Dec-12 20:00N 32°25' W 091°00'4 8.9
2017-Dec-12 19:30N 32°27' W 091°05'4 8.1
2017-Dec-12 19:00N 32°31' W 091°07'4 8.3
2017-Dec-12 18:30N 32°35' W 091°07'5 8.2
2017-Dec-12 17:54N 32°40' W 091°08'  
Track history (hours):
 
Tides and Currents Weather Stations Pressure Air Temp Water Temp Dewpoint Dewpoint Depression Visibility Wind Speed Wind Dir Waves Ship Positions

Justin Paul Eckstein

Owner: Marquette Transportation Co. LLC, Paducah, KY. More information available from US FCC via Universal Licensing System and Coast Guard Vessel Documentation Center.

Last reported at 2017-Dec-13 01:43 UTC. Time now 2017-Dec-15 08:17 UTC.
Position N 31°57' W 091°11'.

Length 61 m; draft 3.2 m.

Type: Tow > 200 m length. MMSI: 367608030.

Date/timePositionNaut miles runAvg speedWind from/ knotsBaromVisibWave heightAir tempDewpointWater temp
2017-Dec-13 01:43N 31°57' W 091°11'5 8.0
2017-Dec-13 01:03N 31°60' W 091°06'0 8.6
2017-Dec-13 01:00N 31°60' W 091°05'5 8.3
2017-Dec-13 00:25N 32°05' W 091°04'3 8.2
2017-Dec-13 00:00N 32°07' W 091°07'2 3.6
2017-Dec-12 23:30N 32°08' W 091°05'4 7.3
2017-Dec-12 23:00N 32°08' W 091°00'5 9.1
2017-Dec-12 22:30N 32°13' W 090°59'4 8.8
2017-Dec-12 22:00N 32°17' W 090°57'4 8.2
2017-Dec-12 21:30N 32°20' W 090°54'2 3.6
2017-Dec-12 21:00N 32°21' W 090°56'3 6.6
2017-Dec-12 20:30N 32°21' W 090°60'4 7.9
2017-Dec-12 20:00N 32°25' W 091°00'4 8.9
2017-Dec-12 19:30N 32°27' W 091°05'4 8.1
2017-Dec-12 19:00N 32°31' W 091°07'4 8.3
2017-Dec-12 18:30N 32°35' W 091°07'5 8.2
2017-Dec-12 17:54N 32°40' W 091°08'  

Dump ship's entire track history